Time;durP1;ratioP1;P1;durP2;ratioP2;P2;SDS_P1;SDS_P2;PMS_P1;PMS_P2;Temp;Humidity;BMP_temperature;BMP_pressure;BME280_temperature;BME280_humidity;BME280_pressure;Samples;Min_cycle;Max_cycle;Signal;HPM_P1;HPM_P2
2021/12/13 00:00:33;;;;;;;10.97;7.50;;;6.40;99.90;;;;;;5027888;28;20471;-56
2021/12/13 00:03:09;;;;;;;13.50;5.00;;;6.40;99.90;;;;;;5027873;28;20442;-51
2021/12/13 00:05:40;;;;;;;7.23;4.70;;;6.40;99.90;;;;;;5027338;28;20504;-59
2021/12/13 00:08:12;;;;;;;12.60;6.70;;;6.50;99.90;;;;;;5027132;28;20422;-48
2021/12/13 00:10:42;;;;;;;15.03;6.90;;;6.40;99.90;;;;;;5026860;28;20444;-57
2021/12/13 00:13:13;;;;;;;10.70;5.53;;;6.50;99.90;;;;;;5026142;28;20533;-54
2021/12/13 00:15:48;;;;;;;10.73;5.30;;;6.50;99.90;;;;;;5025446;28;20489;-55
2021/12/13 00:18:21;;;;;;;11.40;6.20;;;6.50;99.90;;;;;;5024507;28;20433;-56
2021/12/13 00:20:53;;;;;;;18.50;8.60;;;6.60;99.90;;;;;;5024909;28;20473;-54
2021/12/13 00:23:26;;;;;;;9.67;5.40;;;6.60;99.90;;;;;;5024718;28;20470;-56
2021/12/13 00:25:56;;;;;;;15.30;7.13;;;6.60;99.90;;;;;;5024782;28;20446;-55
2021/12/13 00:28:25;;;;;;;12.93;6.73;;;6.60;99.90;;;;;;5024660;28;20977;-56
2021/12/13 00:31:23;;;;;;;14.90;7.53;;;6.60;99.90;;;;;;5023932;28;20457;-55
2021/12/13 00:34:04;;;;;;;11.83;5.77;;;6.60;99.90;;;;;;5024902;28;20471;-53
2021/12/13 00:36:35;;;;;;;9.70;6.03;;;6.60;99.90;;;;;;5024975;28;20457;-55
2021/12/13 00:39:10;;;;;;;14.20;7.40;;;6.60;99.90;;;;;;5024614;28;20465;-55
2021/12/13 00:41:48;;;;;;;14.23;8.10;;;6.60;99.90;;;;;;5025734;28;21070;-55
2021/12/13 00:44:19;;;;;;;17.67;7.80;;;6.70;99.90;;;;;;5025549;28;20491;-55
2021/12/13 00:46:50;;;;;;;9.70;5.50;;;6.70;99.90;;;;;;5024825;28;20468;-56
2021/12/13 00:49:21;;;;;;;11.83;7.57;;;6.70;99.90;;;;;;5024090;28;20568;-55
2021/12/13 00:51:51;;;;;;;13.90;6.73;;;6.70;99.90;;;;;;5023774;28;20441;-56
2021/12/13 00:54:20;;;;;;;12.37;7.83;;;6.70;99.90;;;;;;5024203;28;20449;-55
2021/12/13 00:57:17;;;;;;;10.20;5.80;;;6.70;99.90;;;;;;5024262;28;20449;-53
2021/12/13 00:59:50;;;;;;;9.90;6.17;;;6.80;99.90;;;;;;5023584;28;20426;-55
2021/12/13 01:02:19;;;;;;;13.80;7.23;;;6.80;99.90;;;;;;5023989;28;20579;-55
2021/12/13 01:05:02;;;;;;;11.77;6.17;;;6.80;99.90;;;;;;5023201;28;20482;-55
2021/12/13 01:08:04;;;;;;;11.50;5.93;;;6.90;99.90;;;;;;5023269;28;20503;-52
2021/12/13 01:11:10;;;;;;;13.20;6.43;;;6.90;99.90;;;;;;5023470;28;20473;-54
2021/12/13 01:14:09;;;;;;;12.40;5.40;;;6.90;99.90;;;;;;5023673;28;20418;-54
2021/12/13 01:16:52;;;;;;;14.83;6.37;;;6.90;99.90;;;;;;4992986;28;20434;-55
2021/12/13 01:19:37;;;;;;;14.73;6.67;;;6.90;99.90;;;;;;5023231;28;20459;-55
2021/12/13 01:22:29;;;;;;;12.07;6.53;;;6.90;99.90;;;;;;5023053;28;20430;-56
2021/12/13 01:25:16;;;;;;;12.07;6.50;;;6.90;99.90;;;;;;5022042;28;20497;-55
2021/12/13 01:27:47;;;;;;;10.60;4.83;;;6.90;99.90;;;;;;5022702;28;20425;-54
2021/12/13 01:30:16;;;;;;;13.93;6.87;;;7.00;99.90;;;;;;5022313;28;20442;-52
2021/12/13 01:32:48;;;;;;;11.53;6.07;;;7.00;99.90;;;;;;5022356;28;20422;-54
2021/12/13 01:35:23;;;;;;;10.67;6.70;;;7.00;99.90;;;;;;5022194;28;20431;-55
2021/12/13 01:37:53;;;;;;;12.87;6.73;;;7.00;99.90;;;;;;5022767;28;20480;-55
2021/12/13 01:40:23;;;;;;;11.43;7.07;;;7.00;99.90;;;;;;5022827;28;20481;-51
2021/12/13 01:42:57;;;;;;;11.13;6.57;;;7.10;99.90;;;;;;5024410;28;20495;-54
2021/12/13 01:45:26;;;;;;;13.57;6.80;;;7.10;99.90;;;;;;5025679;28;20488;-53
2021/12/13 01:47:55;;;;;;;12.93;7.27;;;7.10;99.90;;;;;;5026687;28;20461;-55
2021/12/13 01:50:24;;;;;;;13.50;6.67;;;7.10;99.90;;;;;;5026094;28;20446;-54
2021/12/13 01:52:54;;;;;;;11.30;5.73;;;7.10;99.90;;;;;;5025774;28;20477;-58
2021/12/13 01:55:25;;;;;;;10.53;6.67;;;7.10;99.90;;;;;;5025618;28;20460;-54
2021/12/13 01:58:08;;;;;;;10.70;6.43;;;7.20;99.90;;;;;;5026605;28;20434;-53
2021/12/13 02:01:09;;;;;;;14.17;7.63;;;7.10;99.90;;;;;;5026897;28;20568;-54
2021/12/13 02:03:48;;;;;;;8.80;6.10;;;7.10;99.90;;;;;;5026325;28;20442;-51
2021/12/13 02:06:24;;;;;;;13.27;6.20;;;7.10;99.90;;;;;;5026573;28;20454;-55
2021/12/13 02:09:00;;;;;;;15.23;7.90;;;7.10;99.90;;;;;;5025668;28;20445;-53
2021/12/13 02:11:29;;;;;;;12.10;6.30;;;7.10;99.90;;;;;;5026061;28;20491;-53
2021/12/13 02:14:09;;;;;;;13.93;6.73;;;7.10;99.90;;;;;;5025576;28;20465;-54
2021/12/13 02:16:58;;;;;;;10.97;5.90;;;7.10;99.90;;;;;;5025496;28;20457;-52
2021/12/13 02:19:32;;;;;;;10.17;6.33;;;7.10;99.90;;;;;;5025488;28;20445;-52
2021/12/13 02:22:08;;;;;;;17.10;9.63;;;7.20;99.90;;;;;;5025415;28;20429;-53
2021/12/13 02:24:39;;;;;;;12.27;6.67;;;7.20;99.90;;;;;;5025059;28;20488;-54
2021/12/13 02:27:07;;;;;;;8.77;5.27;;;7.20;99.90;;;;;;5024986;28;20453;-56
2021/12/13 02:29:37;;;;;;;14.63;7.60;;;7.20;99.90;;;;;;5024661;28;20496;-56
2021/12/13 02:32:07;;;;;;;17.50;6.80;;;7.20;99.90;;;;;;5025362;28;20449;-55
2021/12/13 02:34:37;;;;;;;14.77;7.03;;;7.20;99.90;;;;;;5025073;28;20470;-56
2021/12/13 02:37:06;;;;;;;12.83;6.90;;;7.20;99.90;;;;;;5025770;28;20453;-56
2021/12/13 02:39:39;;;;;;;10.80;6.30;;;7.20;99.90;;;;;;5026025;28;20484;-55
2021/12/13 02:42:09;;;;;;;13.90;7.60;;;7.20;99.90;;;;;;5026804;28;20541;-56
2021/12/13 02:44:39;;;;;;;14.03;6.80;;;7.20;99.90;;;;;;5026719;28;20481;-53
2021/12/13 02:47:11;;;;;;;13.00;6.90;;;7.30;99.90;;;;;;5026424;28;20438;-56
2021/12/13 02:49:39;;;;;;;13.10;5.83;;;7.30;99.90;;;;;;5025018;28;20462;-56
2021/12/13 02:52:11;;;;;;;12.03;6.50;;;7.20;99.90;;;;;;5024475;28;20450;-56
2021/12/13 02:54:43;;;;;;;26.53;7.40;;;7.30;99.90;;;;;;5024787;28;20458;-53
2021/12/13 02:57:12;;;;;;;14.20;6.20;;;7.30;99.90;;;;;;5024580;28;20536;-55
2021/12/13 02:59:42;;;;;;;16.10;7.50;;;7.30;99.90;;;;;;5024466;28;20513;-56
2021/12/13 03:02:16;;;;;;;15.50;7.67;;;7.30;99.90;;;;;;5024640;28;20453;-54
2021/12/13 03:04:44;;;;;;;10.70;7.13;;;7.20;99.90;;;;;;5024937;28;20477;-51
2021/12/13 03:07:14;;;;;;;16.00;7.40;;;7.20;99.90;;;;;;5025000;28;20441;-53
2021/12/13 03:09:45;;;;;;;13.23;6.83;;;7.20;99.90;;;;;;5025098;28;20468;-52
2021/12/13 03:12:16;;;;;;;14.13;7.17;;;7.20;99.90;;;;;;5025557;28;20430;-53
2021/12/13 03:14:46;;;;;;;16.30;7.90;;;7.20;99.90;;;;;;5024118;28;20430;-53
2021/12/13 03:17:19;;;;;;;15.83;7.27;;;7.20;99.90;;;;;;5025203;28;20512;-53
2021/12/13 03:20:02;;;;;;;13.73;6.40;;;7.10;99.90;;;;;;5026057;28;20504;-57
2021/12/13 03:23:04;;;;;;;13.53;6.93;;;7.10;99.90;;;;;;5025376;28;20433;-55
2021/12/13 03:25:44;;;;;;;19.33;8.20;;;7.10;99.90;;;;;;5024126;28;20493;-52
2021/12/13 03:28:31;;;;;;;16.67;8.03;;;7.10;99.90;;;;;;5024297;28;20429;-54
2021/12/13 03:31:02;;;;;;;15.93;6.23;;;7.10;99.90;;;;;;5023945;28;20434;-55
2021/12/13 03:33:33;;;;;;;12.07;6.77;;;7.10;99.90;;;;;;5023596;28;20430;-56
2021/12/13 03:36:06;;;;;;;14.73;8.67;;;7.10;99.90;;;;;;5023988;28;20504;-53
2021/12/13 03:38:36;;;;;;;20.17;6.77;;;7.10;99.90;;;;;;5023781;28;20504;-53
2021/12/13 03:41:08;;;;;;;17.00;7.30;;;7.10;99.90;;;;;;5023731;28;20453;-55
2021/12/13 03:43:37;;;;;;;16.60;7.73;;;7.10;99.90;;;;;;5023206;28;20434;-56
2021/12/13 03:46:08;;;;;;;13.70;7.50;;;7.10;99.90;;;;;;5023890;28;20635;-54
2021/12/13 03:48:37;;;;;;;14.00;7.87;;;7.20;99.90;;;;;;5023983;28;20434;-55
2021/12/13 03:51:07;;;;;;;14.70;7.07;;;7.20;99.90;;;;;;5023444;28;20476;-55
2021/12/13 03:53:35;;;;;;;14.40;6.27;;;7.20;99.90;;;;;;5023601;28;20477;-56
2021/12/13 03:56:11;;;;;;;12.23;6.40;;;7.20;99.90;;;;;;5024245;28;20467;-54
2021/12/13 03:58:43;;;;;;;12.70;6.30;;;7.20;99.90;;;;;;5023804;28;20449;-54
2021/12/13 04:01:12;;;;;;;11.30;6.80;;;7.20;99.90;;;;;;5023108;28;21004;-55
2021/12/13 04:03:41;;;;;;;14.33;6.27;;;7.20;99.90;;;;;;5022769;28;20446;-56
2021/12/13 04:06:08;;;;;;;13.90;6.87;;;7.20;99.90;;;;;;5022288;28;20558;-52
2021/12/13 04:08:36;;;;;;;17.53;7.30;;;7.10;99.90;;;;;;5023769;28;20490;-55
2021/12/13 04:11:07;;;;;;;13.90;7.63;;;7.10;99.90;;;;;;5023632;28;20834;-52
2021/12/13 04:13:38;;;;;;;16.90;8.90;;;7.20;99.90;;;;;;5023439;28;20469;-55
2021/12/13 04:16:14;;;;;;;16.60;7.10;;;7.10;99.90;;;;;;5023707;28;20740;-55
2021/12/13 04:21:42;;;;;;;19.70;7.20;;;7.20;99.90;;;;;;5055295;28;20475;-57
2021/12/13 04:24:12;;;;;;;20.73;9.43;;;7.10;99.90;;;;;;5055496;28;20444;-54
2021/12/13 04:26:42;;;;;;;15.50;8.30;;;7.10;99.90;;;;;;5054570;28;20475;-53
2021/12/13 04:29:16;;;;;;;18.83;7.20;;;7.10;99.90;;;;;;5055001;28;20432;-56
2021/12/13 04:31:44;;;;;;;16.80;7.60;;;7.10;99.90;;;;;;5055401;28;20421;-56
2021/12/13 04:34:11;;;;;;;19.63;5.87;;;7.10;99.90;;;;;;5055206;28;20495;-52
2021/12/13 04:36:41;;;;;;;23.63;9.60;;;7.10;99.90;;;;;;5055422;28;20472;-53
2021/12/13 04:39:14;;;;;;;21.50;7.20;;;7.10;99.90;;;;;;5056155;28;20429;-52
2021/12/13 04:41:45;;;;;;;12.70;7.67;;;7.10;99.90;;;;;;5055807;28;20447;-54
2021/12/13 04:44:18;;;;;;;27.10;8.80;;;7.10;99.90;;;;;;5055847;28;20443;-54
2021/12/13 04:46:51;;;;;;;18.83;7.30;;;7.10;99.90;;;;;;5055535;28;20464;-55
2021/12/13 04:49:21;;;;;;;13.43;6.67;;;7.10;99.90;;;;;;5055800;28;20430;-53
2021/12/13 04:51:54;;;;;;;19.47;8.00;;;7.10;99.90;;;;;;5056115;28;20437;-56
2021/12/13 04:54:22;;;;;;;19.63;7.00;;;7.10;99.90;;;;;;5055608;28;20452;-55
2021/12/13 04:56:49;;;;;;;22.03;7.37;;;7.10;99.90;;;;;;5055570;28;20441;-52
2021/12/13 04:59:19;;;;;;;18.30;6.77;;;7.10;99.90;;;;;;5055182;28;20441;-52
2021/12/13 05:01:47;;;;;;;15.37;7.80;;;7.10;99.90;;;;;;5055220;28;20460;-52
2021/12/13 05:04:16;;;;;;;19.00;7.60;;;7.10;99.90;;;;;;5054930;28;20444;-53
2021/12/13 05:06:43;;;;;;;26.27;9.47;;;7.10;99.90;;;;;;5055093;28;20475;-55
2021/12/13 05:09:14;;;;;;;15.03;7.07;;;7.10;99.90;;;;;;5055082;28;20437;-53
2021/12/13 05:11:44;;;;;;;17.93;7.87;;;7.10;99.90;;;;;;5055074;28;20429;-53
2021/12/13 05:14:11;;;;;;;19.90;6.63;;;7.10;99.90;;;;;;5055649;28;20459;-53
2021/12/13 05:16:47;;;;;;;21.17;6.80;;;7.10;99.90;;;;;;5057128;28;20444;-49
2021/12/13 05:19:26;;;;;;;22.40;8.30;;;7.10;99.90;;;;;;5059009;28;20467;-51
2021/12/13 05:21:54;;;;;;;13.03;6.40;;;7.10;99.90;;;;;;5059655;28;20464;-51
2021/12/13 05:24:24;;;;;;;17.87;8.50;;;7.20;99.90;;;;;;5059611;28;20441;-54
2021/12/13 05:26:54;;;;;;;15.00;5.90;;;7.10;99.90;;;;;;5059404;28;20457;-51
2021/12/13 05:29:28;;;;;;;14.90;6.40;;;7.20;99.90;;;;;;5056535;28;20449;-48
2021/12/13 05:32:00;;;;;;;18.30;6.33;;;7.10;99.90;;;;;;5046116;28;20848;-53
2021/12/13 05:34:32;;;;;;;22.87;7.37;;;7.10;99.90;;;;;;5042372;28;20432;-52
2021/12/13 05:37:02;;;;;;;18.80;6.70;;;7.20;99.90;;;;;;5045427;28;20463;-52
2021/12/13 05:39:29;;;;;;;12.57;6.87;;;7.20;99.90;;;;;;5045174;28;20554;-53
2021/12/13 05:42:03;;;;;;;19.43;6.13;;;7.20;99.90;;;;;;5041327;28;20502;-56
2021/12/13 05:44:33;;;;;;;22.27;7.20;;;7.20;99.90;;;;;;5045902;28;20452;-55
2021/12/13 05:47:04;;;;;;;19.57;8.27;;;7.20;99.90;;;;;;5046254;28;20464;-55
2021/12/13 05:49:36;;;;;;;14.00;6.57;;;7.20;99.90;;;;;;5046213;28;20494;-55
2021/12/13 05:52:08;;;;;;;26.13;6.27;;;7.30;99.90;;;;;;5047529;28;20432;-54
2021/12/13 05:54:36;;;;;;;23.13;9.07;;;7.20;99.90;;;;;;5053008;28;20459;-53
2021/12/13 05:57:09;;;;;;;17.77;6.13;;;7.30;99.90;;;;;;5054902;28;20483;-53
2021/12/13 05:59:40;;;;;;;21.53;8.60;;;7.20;99.90;;;;;;5055176;28;20664;-52
2021/12/13 06:02:13;;;;;;;18.17;7.63;;;7.30;99.90;;;;;;5055486;28;20428;-55
2021/12/13 06:04:45;;;;;;;18.10;8.20;;;7.30;99.90;;;;;;5055454;28;20465;-55
2021/12/13 06:07:19;;;;;;;20.87;7.40;;;7.30;99.90;;;;;;5056375;28;20472;-52
2021/12/13 06:09:52;;;;;;;14.13;5.90;;;7.30;99.90;;;;;;5058802;28;20416;-54
2021/12/13 06:12:37;;;;;;;24.17;6.00;;;7.30;99.90;;;;;;5058722;28;20452;-53
2021/12/13 06:15:27;;;;;;;20.80;9.13;;;7.30;99.90;;;;;;5054666;28;20486;-52
2021/12/13 06:17:59;;;;;;;27.03;5.87;;;7.20;99.90;;;;;;5054744;28;20455;-54
2021/12/13 06:20:29;;;;;;;17.90;7.47;;;7.20;99.90;;;;;;5054472;28;20429;-53
2021/12/13 06:23:07;;;;;;;14.80;5.10;;;7.20;99.90;;;;;;5054724;28;20491;-56
2021/12/13 06:25:34;;;;;;;16.97;6.47;;;7.20;99.90;;;;;;5054357;28;20480;-55
2021/12/13 06:28:01;;;;;;;22.07;7.60;;;7.20;99.90;;;;;;5054179;28;20471;-51
2021/12/13 06:30:30;;;;;;;24.60;7.40;;;7.20;99.90;;;;;;5054768;28;20456;-49
2021/12/13 06:33:00;;;;;;;28.90;8.47;;;7.30;99.90;;;;;;5054588;28;20465;-54
2021/12/13 06:35:48;;;;;;;13.83;6.00;;;7.30;99.90;;;;;;5054328;28;20426;-53
2021/12/13 06:38:46;;;;;;;17.60;6.67;;;7.30;99.90;;;;;;5053952;28;20502;-56
2021/12/13 06:41:32;;;;;;;16.70;5.90;;;7.30;99.90;;;;;;5029145;28;20487;-58
2021/12/13 06:44:01;;;;;;;14.50;6.47;;;7.30;99.90;;;;;;5044511;28;20432;-58
2021/12/13 06:46:35;;;;;;;18.70;8.30;;;7.30;99.90;;;;;;5052347;28;20477;-59
2021/12/13 06:49:15;;;;;;;21.77;8.50;;;7.30;99.90;;;;;;5053306;28;20460;-55
2021/12/13 06:51:47;;;;;;;16.93;7.33;;;7.30;99.90;;;;;;5042425;28;20836;-55
2021/12/13 06:54:18;;;;;;;14.77;6.80;;;7.30;99.90;;;;;;5040833;28;20437;-57
2021/12/13 06:56:55;;;;;;;24.07;7.90;;;7.20;99.90;;;;;;5044243;28;20441;-56
2021/12/13 06:59:23;;;;;;;16.47;7.30;;;7.20;99.90;;;;;;5060807;28;20444;-57
2021/12/13 07:02:01;;;;;;;13.57;5.40;;;7.30;99.90;;;;;;5058183;28;20470;-56
2021/12/13 07:04:40;;;;;;;25.03;7.50;;;7.20;99.90;;;;;;5061743;28;20476;-57
2021/12/13 07:07:12;;;;;;;24.03;7.70;;;7.30;99.90;;;;;;5048875;28;20469;-52
2021/12/13 07:09:39;;;;;;;17.33;6.27;;;7.20;99.90;;;;;;5043638;28;20444;-58
2021/12/13 07:12:14;;;;;;;24.10;9.77;;;7.30;99.90;;;;;;5045629;28;20472;-57
2021/12/13 07:14:42;;;;;;;17.20;6.50;;;7.30;99.90;;;;;;5045275;28;20440;-56
2021/12/13 07:17:14;;;;;;;16.77;6.40;;;7.30;99.90;;;;;;5045556;28;20456;-57
2021/12/13 07:19:45;;;;;;;16.83;6.47;;;7.30;99.90;;;;;;5045182;28;20441;-54
2021/12/13 07:22:18;;;;;;;17.67;8.20;;;7.30;99.90;;;;;;5044876;28;20893;-56
2021/12/13 07:24:51;;;;;;;23.50;8.40;;;7.30;99.90;;;;;;5045180;28;20469;-58
2021/12/13 07:27:22;;;;;;;26.13;6.60;;;7.30;99.90;;;;;;5044976;28;20468;-56
2021/12/13 07:29:52;;;;;;;18.97;8.13;;;7.30;99.90;;;;;;5044456;28;20499;-57
2021/12/13 07:32:22;;;;;;;18.60;7.73;;;7.30;99.90;;;;;;5044367;28;20444;-58
2021/12/13 07:34:57;;;;;;;14.17;5.40;;;7.30;99.90;;;;;;5043609;28;20824;-56
2021/12/13 07:37:43;;;;;;;18.57;8.00;;;7.30;99.90;;;;;;5043703;28;20901;-54
2021/12/13 07:40:23;;;;;;;21.97;7.60;;;7.30;99.90;;;;;;5042417;28;20460;-55
2021/12/13 07:42:53;;;;;;;14.50;5.50;;;7.30;99.90;;;;;;5043035;28;20483;-57
2021/12/13 07:45:26;;;;;;;20.37;7.10;;;7.30;99.90;;;;;;5043939;28;20446;-60
2021/12/13 07:47:54;;;;;;;21.77;9.17;;;7.30;99.90;;;;;;5044255;28;20425;-58
2021/12/13 07:50:24;;;;;;;34.80;8.83;;;7.30;99.90;;;;;;5043384;28;20469;-56
2021/12/13 07:52:55;;;;;;;20.27;8.33;;;7.30;99.90;;;;;;5043372;28;20428;-57
2021/12/13 07:55:26;;;;;;;14.47;6.73;;;7.30;99.90;;;;;;5043159;28;20487;-57
2021/12/13 07:57:55;;;;;;;20.00;7.57;;;7.40;99.90;;;;;;5042723;28;20499;-57
2021/12/13 08:00:27;;;;;;;17.30;6.40;;;7.40;99.90;;;;;;5042555;28;20471;-58
2021/12/13 08:02:57;;;;;;;18.20;6.57;;;7.40;99.90;;;;;;5042902;28;20435;-57
2021/12/13 08:05:28;;;;;;;13.73;6.87;;;7.40;99.90;;;;;;5043472;28;20444;-58
2021/12/13 08:07:59;;;;;;;19.20;7.43;;;7.40;99.90;;;;;;5042803;28;20456;-57
2021/12/13 08:10:29;;;;;;;22.73;7.73;;;7.40;99.90;;;;;;5042433;28;20530;-57
2021/12/13 08:13:02;;;;;;;27.23;9.93;;;7.50;99.90;;;;;;5042096;28;20755;-52
2021/12/13 08:15:34;;;;;;;21.63;7.07;;;7.40;99.90;;;;;;5042074;28;20433;-55
2021/12/13 08:18:05;;;;;;;24.30;8.00;;;7.50;99.90;;;;;;5042181;28;20599;-57
2021/12/13 08:20:41;;;;;;;25.17;7.83;;;7.60;99.90;;;;;;5042425;28;20420;-57
2021/12/13 08:23:16;;;;;;;17.37;6.63;;;7.60;99.90;;;;;;5041637;28;20475;-58
2021/12/13 08:25:48;;;;;;;16.87;6.17;;;7.50;99.90;;;;;;5041768;28;20456;-54
2021/12/13 08:28:30;;;;;;;14.20;6.10;;;7.60;99.90;;;;;;5041776;28;20445;-57
2021/12/13 08:31:01;;;;;;;12.43;5.10;;;7.60;99.90;;;;;;5041264;28;20534;-57
2021/12/13 08:33:34;;;;;;;16.67;8.53;;;7.70;99.90;;;;;;5042121;28;20410;-57
2021/12/13 08:36:07;;;;;;;17.33;6.80;;;7.70;99.90;;;;;;5042382;28;20476;-57
2021/12/13 08:38:47;;;;;;;21.13;7.60;;;7.70;99.90;;;;;;5042682;28;20462;-57
2021/12/13 08:41:26;;;;;;;21.13;7.60;;;7.70;99.90;;;;;;5042399;28;20817;-57
2021/12/13 08:43:55;;;;;;;24.37;8.00;;;7.70;99.90;;;;;;5041888;28;20464;-56
2021/12/13 08:46:34;;;;;;;19.10;8.50;;;7.70;99.90;;;;;;5041105;28;20500;-54
2021/12/13 08:49:15;;;;;;;17.87;5.90;;;7.70;99.90;;;;;;5042029;28;20429;-54
2021/12/13 08:51:54;;;;;;;20.23;6.20;;;7.70;99.90;;;;;;5045321;28;20429;-61
2021/12/13 08:54:22;;;;;;;22.17;5.50;;;7.70;99.90;;;;;;5047168;28;20500;-56
2021/12/13 08:56:54;;;;;;;16.50;6.10;;;7.70;99.90;;;;;;5047051;28;20953;-52
2021/12/13 08:59:24;;;;;;;25.53;6.87;;;7.70;99.90;;;;;;5047490;28;20475;-57
2021/12/13 09:01:55;;;;;;;15.67;6.33;;;7.80;99.90;;;;;;5047532;28;20448;-58
2021/12/13 09:04:25;;;;;;;18.53;5.67;;;7.80;99.90;;;;;;5046947;28;20452;-57
2021/12/13 09:06:56;;;;;;;18.30;6.53;;;7.80;99.90;;;;;;5048999;28;20481;-57
2021/12/13 09:09:23;;;;;;;18.50;6.53;;;7.80;99.90;;;;;;5047464;28;20478;-57
2021/12/13 09:11:57;;;;;;;14.07;5.97;;;7.80;99.90;;;;;;5047258;28;20448;-55
2021/12/13 09:14:27;;;;;;;13.13;6.37;;;7.90;99.90;;;;;;5045749;28;20506;-56
2021/12/13 09:17:10;;;;;;;13.57;5.90;;;7.90;99.90;;;;;;5045340;28;20550;-56
2021/12/13 09:19:47;;;;;;;17.63;7.20;;;7.90;99.90;;;;;;5045210;28;21050;-56
2021/12/13 09:22:18;;;;;;;18.40;8.57;;;7.90;99.90;;;;;;5045141;28;20433;-58
2021/12/13 09:24:52;;;;;;;27.27;9.37;;;8.00;99.90;;;;;;5045241;28;20437;-58
2021/12/13 09:27:28;;;;;;;20.13;8.20;;;7.90;99.90;;;;;;5045256;28;20481;-57
2021/12/13 09:30:14;;;;;;;20.40;7.80;;;8.00;99.90;;;;;;5045103;28;20496;-58
2021/12/13 09:32:44;;;;;;;11.20;5.60;;;8.00;99.90;;;;;;5044962;28;20441;-58
2021/12/13 09:35:26;;;;;;;15.57;6.97;;;8.00;99.90;;;;;;5045733;28;20459;-58
2021/12/13 09:37:56;;;;;;;21.87;7.33;;;8.00;99.90;;;;;;5044732;28;20532;-56
2021/12/13 09:40:32;;;;;;;11.50;6.10;;;8.10;99.90;;;;;;5044329;28;20936;-54
2021/12/13 09:42:59;;;;;;;16.70;9.07;;;8.10;99.90;;;;;;5044468;28;20476;-54
2021/12/13 09:45:29;;;;;;;13.80;6.70;;;8.10;99.90;;;;;;5044425;28;20475;-56
2021/12/13 09:47:57;;;;;;;16.73;7.00;;;8.20;99.90;;;;;;5044169;28;20468;-58
2021/12/13 09:50:30;;;;;;;18.30;7.57;;;8.20;99.90;;;;;;5044555;28;20963;-58
2021/12/13 09:53:03;;;;;;;17.50;7.30;;;8.30;99.90;;;;;;5043960;28;20802;-57
2021/12/13 09:55:32;;;;;;;15.20;5.97;;;8.30;99.90;;;;;;5043285;28;20477;-58
2021/12/13 09:58:04;;;;;;;17.80;7.27;;;8.30;99.90;;;;;;5043849;28;20462;-56
2021/12/13 10:00:40;;;;;;;19.43;6.63;;;8.30;99.90;;;;;;5043673;28;20432;-57
2021/12/13 10:03:11;;;;;;;8.07;4.90;;;8.30;99.90;;;;;;5042715;28;20943;-58
2021/12/13 10:05:42;;;;;;;12.83;6.40;;;8.40;99.90;;;;;;5044071;28;20417;-57
2021/12/13 10:08:15;;;;;;;17.23;7.20;;;8.70;99.90;;;;;;5043557;28;20475;-57
2021/12/13 10:10:46;;;;;;;13.87;6.03;;;8.90;99.90;;;;;;5043656;28;20435;-58
2021/12/13 10:13:17;;;;;;;12.97;6.07;;;8.90;99.90;;;;;;5043365;28;20455;-58
2021/12/13 10:15:51;;;;;;;14.90;6.63;;;9.00;99.90;;;;;;5042772;28;20476;-54
2021/12/13 10:18:21;;;;;;;9.97;5.83;;;8.90;99.90;;;;;;5044492;28;20436;-56
2021/12/13 10:20:51;;;;;;;14.10;6.50;;;8.80;99.90;;;;;;5044355;28;20477;-59
2021/12/13 10:23:23;;;;;;;8.37;5.20;;;8.80;99.90;;;;;;5045011;28;20447;-58
2021/12/13 10:25:52;;;;;;;11.13;5.57;;;8.80;99.90;;;;;;5043765;28;20513;-58
2021/12/13 10:28:23;;;;;;;10.33;5.80;;;8.80;99.90;;;;;;5042146;28;20492;-58
2021/12/13 10:30:54;;;;;;;13.00;5.50;;;8.80;99.90;;;;;;5043040;28;20438;-58
2021/12/13 10:33:24;;;;;;;17.73;6.97;;;8.80;99.90;;;;;;5041857;28;20457;-58
2021/12/13 10:35:53;;;;;;;13.00;5.60;;;8.80;99.90;;;;;;5041907;28;20777;-58
2021/12/13 10:38:26;;;;;;;16.30;6.70;;;8.90;99.90;;;;;;5042747;28;20440;-53
2021/12/13 10:40:56;;;;;;;13.80;7.00;;;8.80;99.90;;;;;;5041904;28;20476;-58
2021/12/13 10:43:28;;;;;;;9.63;5.80;;;8.90;99.90;;;;;;5042792;28;20440;-55
2021/12/13 10:46:03;;;;;;;13.97;6.30;;;8.90;99.90;;;;;;5042853;28;20470;-58
2021/12/13 10:48:32;;;;;;;9.00;5.87;;;8.90;99.90;;;;;;5042155;28;20503;-56
2021/12/13 10:51:05;;;;;;;17.30;7.27;;;8.80;99.90;;;;;;5041818;28;20923;-58
2021/12/13 10:53:37;;;;;;;13.23;6.50;;;8.80;99.90;;;;;;5041665;28;20430;-58
2021/12/13 10:56:10;;;;;;;10.83;4.93;;;8.80;99.90;;;;;;5041525;28;20454;-58
2021/12/13 10:58:42;;;;;;;10.30;5.50;;;8.80;99.90;;;;;;5042407;28;20444;-58
2021/12/13 11:01:12;;;;;;;11.17;4.67;;;8.80;99.90;;;;;;5041973;28;20474;-56
2021/12/13 11:03:41;;;;;;;13.67;6.30;;;8.80;99.90;;;;;;5041621;28;20444;-58
2021/12/13 11:06:11;;;;;;;17.33;8.30;;;8.70;99.90;;;;;;5041791;28;20455;-58
2021/12/13 11:08:42;;;;;;;13.87;5.97;;;8.80;99.90;;;;;;5041872;28;20473;-57
2021/12/13 11:11:17;;;;;;;15.77;5.40;;;8.80;99.90;;;;;;5042126;28;20432;-57
2021/12/13 11:13:47;;;;;;;17.47;6.63;;;8.80;99.90;;;;;;5041647;28;20939;-57
2021/12/13 11:16:17;;;;;;;14.10;7.43;;;8.90;99.90;;;;;;5042067;28;20471;-57
2021/12/13 11:18:45;;;;;;;21.27;5.73;;;8.90;99.90;;;;;;5042069;28;20756;-58
2021/12/13 11:21:16;;;;;;;12.57;5.90;;;8.90;99.90;;;;;;5041263;28;20475;-58
2021/12/13 11:23:44;;;;;;;10.30;4.30;;;8.90;99.90;;;;;;5041266;28;20463;-58
2021/12/13 11:26:16;;;;;;;12.17;5.30;;;8.90;99.90;;;;;;5041322;28;20582;-58
2021/12/13 11:28:44;;;;;;;16.80;6.40;;;8.90;99.90;;;;;;5042847;28;20514;-58
2021/12/13 11:31:16;;;;;;;11.63;4.10;;;9.00;99.90;;;;;;5041373;28;20516;-57
2021/12/13 11:34:19;;;;;;;13.10;6.73;;;9.00;99.90;;;;;;5041702;28;20443;-58
2021/12/13 11:37:28;;;;;;;13.43;6.30;;;9.00;99.90;;;;;;5043414;28;20447;-56
2021/12/13 11:40:27;;;;;;;11.30;6.20;;;9.00;99.90;;;;;;5043676;28;20461;-58
2021/12/13 11:43:24;;;;;;;11.50;5.30;;;9.00;99.90;;;;;;5042391;28;20444;-55
2021/12/13 11:46:41;;;;;;;11.20;5.20;;;9.10;99.90;;;;;;5042647;28;20439;-54
2021/12/13 11:49:40;;;;;;;11.27;5.53;;;9.10;99.90;;;;;;5042496;28;20531;-57
2021/12/13 11:52:34;;;;;;;8.97;4.43;;;9.10;99.90;;;;;;5027376;28;20494;-57
2021/12/13 11:55:40;;;;;;;11.47;5.60;;;9.10;99.90;;;;;;5043356;28;21010;-56
2021/12/13 11:58:33;;;;;;;13.27;6.50;;;9.10;99.90;;;;;;5042510;28;20432;-61
2021/12/13 12:01:36;;;;;;;13.30;5.50;;;9.20;99.90;;;;;;5040995;28;20474;-56
2021/12/13 12:04:45;;;;;;;10.60;5.30;;;9.20;99.90;;;;;;5040919;28;20438;-57
2021/12/13 12:07:30;;;;;;;8.87;5.60;;;9.20;99.90;;;;;;4992910;28;20527;-58
2021/12/13 12:10:13;;;;;;;19.03;6.43;;;9.20;99.90;;;;;;5040982;28;20847;-57
2021/12/13 12:13:04;;;;;;;12.57;6.70;;;9.20;99.90;;;;;;5040968;28;20448;-58
2021/12/13 12:15:32;;;;;;;11.90;5.47;;;9.20;99.90;;;;;;5040986;28;20466;-58
2021/12/13 12:18:03;;;;;;;14.43;4.70;;;9.30;99.90;;;;;;5040870;28;20436;-52
2021/12/13 12:20:34;;;;;;;12.90;5.73;;;9.30;99.90;;;;;;5039707;28;20497;-56
2021/12/13 12:23:03;;;;;;;9.13;5.37;;;9.30;99.90;;;;;;5040392;28;20432;-54
2021/12/13 12:25:35;;;;;;;8.97;4.47;;;9.40;99.90;;;;;;5040414;28;20460;-58
2021/12/13 12:28:06;;;;;;;11.77;6.20;;;9.40;99.90;;;;;;5039385;28;20503;-57
2021/12/13 12:30:37;;;;;;;9.90;4.63;;;9.40;99.90;;;;;;5039270;28;20498;-58
2021/12/13 12:33:10;;;;;;;10.00;5.23;;;9.50;99.90;;;;;;5039453;28;20482;-57
2021/12/13 12:35:40;;;;;;;8.63;4.37;;;9.50;99.90;;;;;;5040029;28;20439;-56
2021/12/13 12:38:25;;;;;;;8.17;4.40;;;9.50;99.90;;;;;;5039608;28;20429;-57
2021/12/13 12:41:39;;;;;;;10.40;4.70;;;9.50;99.90;;;;;;5038925;28;20484;-52
2021/12/13 12:44:08;;;;;;;12.37;6.77;;;9.50;99.90;;;;;;5039725;28;20450;-57
2021/12/13 12:46:42;;;;;;;13.17;4.37;;;9.50;99.90;;;;;;5039796;28;20968;-57
2021/12/13 12:49:15;;;;;;;8.57;4.57;;;9.50;99.90;;;;;;5039973;28;20509;-55
2021/12/13 12:51:43;;;;;;;10.53;5.07;;;9.50;99.90;;;;;;5040917;28;20504;-58
2021/12/13 12:54:13;;;;;;;8.23;4.43;;;9.50;99.90;;;;;;5042632;28;20508;-56
2021/12/13 12:56:44;;;;;;;10.70;4.73;;;9.60;99.90;;;;;;5041771;28;20473;-57
2021/12/13 12:59:17;;;;;;;8.67;5.20;;;9.60;99.90;;;;;;5039879;28;20427;-57
2021/12/13 13:01:47;;;;;;;9.00;4.10;;;9.60;99.90;;;;;;5039527;28;20445;-57
2021/12/13 13:04:21;;;;;;;8.03;3.97;;;9.60;99.90;;;;;;5039561;28;20433;-57
2021/12/13 13:06:52;;;;;;;5.57;3.43;;;9.60;99.90;;;;;;5039224;28;20513;-57
2021/12/13 13:09:20;;;;;;;7.80;3.83;;;9.70;99.90;;;;;;5039046;28;21005;-57
2021/12/13 13:11:49;;;;;;;7.90;3.67;;;9.70;99.90;;;;;;5039779;28;20481;-56
2021/12/13 13:14:22;;;;;;;6.37;4.60;;;9.70;99.90;;;;;;5039592;28;20463;-57
2021/12/13 13:16:55;;;;;;;8.97;3.83;;;9.80;99.90;;;;;;5039670;28;20433;-57
2021/12/13 13:19:28;;;;;;;11.77;5.13;;;9.80;99.90;;;;;;5038689;28;20971;-58
2021/12/13 13:21:59;;;;;;;8.93;5.13;;;9.70;99.90;;;;;;5039296;28;20454;-58
2021/12/13 13:24:26;;;;;;;10.40;4.97;;;9.80;99.90;;;;;;5038570;28;20457;-58
2021/12/13 13:26:53;;;;;;;6.80;4.70;;;9.80;99.90;;;;;;5038722;28;20476;-56